sensor_id;sensor_type;location;lat;lon;timestamp;temperature;humidity
84294;DHT22;74463;51.182;3.210;2024-03-02T00:00:51;7.00;89.60
84294;DHT22;74463;51.182;3.210;2024-03-02T00:03:19;7.00;90.30
84294;DHT22;74463;51.182;3.210;2024-03-02T00:05:51;6.90;90.50
84294;DHT22;74463;51.182;3.210;2024-03-02T00:08:23;7.00;90.30
84294;DHT22;74463;51.182;3.210;2024-03-02T00:10:53;7.00;90.20
84294;DHT22;74463;51.182;3.210;2024-03-02T00:13:24;7.00;90.30
84294;DHT22;74463;51.182;3.210;2024-03-02T00:15:53;7.00;90.10
84294;DHT22;74463;51.182;3.210;2024-03-02T00:18:26;7.00;89.80
84294;DHT22;74463;51.182;3.210;2024-03-02T00:20:56;7.10;89.60
84294;DHT22;74463;51.182;3.210;2024-03-02T00:23:26;7.20;88.90
84294;DHT22;74463;51.182;3.210;2024-03-02T00:25:55;7.10;89.10
84294;DHT22;74463;51.182;3.210;2024-03-02T00:28:24;7.00;89.50
84294;DHT22;74463;51.182;3.210;2024-03-02T00:30:56;6.90;90.10
84294;DHT22;74463;51.182;3.210;2024-03-02T00:33:26;6.80;90.40
84294;DHT22;74463;51.182;3.210;2024-03-02T00:35:56;6.80;90.30
84294;DHT22;74463;51.182;3.210;2024-03-02T00:38:24;6.80;90.40
84294;DHT22;74463;51.182;3.210;2024-03-02T00:40:51;6.80;90.40
84294;DHT22;74463;51.182;3.210;2024-03-02T00:46:20;6.90;90.10
84294;DHT22;74463;51.182;3.210;2024-03-02T00:48:57;6.80;90.40
84294;DHT22;74463;51.182;3.210;2024-03-02T00:51:28;6.80;90.10
84294;DHT22;74463;51.182;3.210;2024-03-02T00:54:00;6.80;90.30
84294;DHT22;74463;51.182;3.210;2024-03-02T00:56:30;6.80;90.30
84294;DHT22;74463;51.182;3.210;2024-03-02T00:58:57;6.90;89.70
84294;DHT22;74463;51.182;3.210;2024-03-02T01:01:25;6.90;89.30
84294;DHT22;74463;51.182;3.210;2024-03-02T01:03:52;6.90;89.30
84294;DHT22;74463;51.182;3.210;2024-03-02T01:06:20;6.80;89.40
84294;DHT22;74463;51.182;3.210;2024-03-02T01:08:49;6.80;89.50
84294;DHT22;74463;51.182;3.210;2024-03-02T01:11:17;6.90;89.20
84294;DHT22;74463;51.182;3.210;2024-03-02T01:13:45;6.80;89.10
84294;DHT22;74463;51.182;3.210;2024-03-02T01:16:13;6.80;89.40
84294;DHT22;74463;51.182;3.210;2024-03-02T01:18:41;6.70;89.50
84294;DHT22;74463;51.182;3.210;2024-03-02T01:21:09;6.70;89.70
84294;DHT22;74463;51.182;3.210;2024-03-02T01:23:36;6.70;89.30
84294;DHT22;74463;51.182;3.210;2024-03-02T01:26:06;6.70;89.30
84294;DHT22;74463;51.182;3.210;2024-03-02T01:28:33;6.60;89.60
84294;DHT22;74463;51.182;3.210;2024-03-02T01:31:01;6.70;89.70
84294;DHT22;74463;51.182;3.210;2024-03-02T01:33:28;6.70;89.20
84294;DHT22;74463;51.182;3.210;2024-03-02T01:35:56;6.70;88.50
84294;DHT22;74463;51.182;3.210;2024-03-02T01:38:23;6.60;88.90
84294;DHT22;74463;51.182;3.210;2024-03-02T01:40:51;6.70;88.90
84294;DHT22;74463;51.182;3.210;2024-03-02T01:43:20;6.60;88.20
84294;DHT22;74463;51.182;3.210;2024-03-02T01:45:47;6.60;88.70
84294;DHT22;74463;51.182;3.210;2024-03-02T01:48:15;6.60;88.80
84294;DHT22;74463;51.182;3.210;2024-03-02T01:50:42;6.60;89.30
84294;DHT22;74463;51.182;3.210;2024-03-02T01:53:09;6.70;88.30
84294;DHT22;74463;51.182;3.210;2024-03-02T01:55:37;6.80;87.80
84294;DHT22;74463;51.182;3.210;2024-03-02T01:58:05;6.80;87.10
84294;DHT22;74463;51.182;3.210;2024-03-02T02:00:34;6.70;86.80
84294;DHT22;74463;51.182;3.210;2024-03-02T02:03:01;6.70;86.90
84294;DHT22;74463;51.182;3.210;2024-03-02T02:05:29;6.60;87.70
84294;DHT22;74463;51.182;3.210;2024-03-02T02:07:57;6.60;87.30
84294;DHT22;74463;51.182;3.210;2024-03-02T02:10:25;6.50;87.90
84294;DHT22;74463;51.182;3.210;2024-03-02T02:12:53;6.40;87.90
84294;DHT22;74463;51.182;3.210;2024-03-02T02:15:27;6.50;88.30
84294;DHT22;74463;51.182;3.210;2024-03-02T02:17:57;6.60;87.80
84294;DHT22;74463;51.182;3.210;2024-03-02T02:20:25;6.60;87.10
84294;DHT22;74463;51.182;3.210;2024-03-02T02:22:56;6.40;87.80
84294;DHT22;74463;51.182;3.210;2024-03-02T02:25:23;6.30;88.60
84294;DHT22;74463;51.182;3.210;2024-03-02T02:27:51;6.30;88.50
84294;DHT22;74463;51.182;3.210;2024-03-02T02:30:20;6.30;88.90
84294;DHT22;74463;51.182;3.210;2024-03-02T02:32:48;6.30;88.90
84294;DHT22;74463;51.182;3.210;2024-03-02T02:35:14;6.30;89.60
84294;DHT22;74463;51.182;3.210;2024-03-02T02:37:43;6.20;89.60
84294;DHT22;74463;51.182;3.210;2024-03-02T02:40:13;6.20;89.60
84294;DHT22;74463;51.182;3.210;2024-03-02T02:42:40;6.40;88.90
84294;DHT22;74463;51.182;3.210;2024-03-02T02:45:08;6.30;89.30
84294;DHT22;74463;51.182;3.210;2024-03-02T02:47:36;6.40;89.00
84294;DHT22;74463;51.182;3.210;2024-03-02T02:50:06;6.30;89.30
84294;DHT22;74463;51.182;3.210;2024-03-02T02:52:35;6.30;89.20
84294;DHT22;74463;51.182;3.210;2024-03-02T02:55:05;6.20;89.90
84294;DHT22;74463;51.182;3.210;2024-03-02T02:57:34;6.30;89.40
84294;DHT22;74463;51.182;3.210;2024-03-02T03:00:06;6.30;89.10
84294;DHT22;74463;51.182;3.210;2024-03-02T03:02:37;6.30;89.20
84294;DHT22;74463;51.182;3.210;2024-03-02T03:05:06;6.30;89.40
84294;DHT22;74463;51.182;3.210;2024-03-02T03:07:33;6.20;89.40
84294;DHT22;74463;51.182;3.210;2024-03-02T03:10:02;6.20;90.00
84294;DHT22;74463;51.182;3.210;2024-03-02T03:12:30;6.30;89.70
84294;DHT22;74463;51.182;3.210;2024-03-02T03:15:00;6.30;89.30
84294;DHT22;74463;51.182;3.210;2024-03-02T03:17:27;6.20;90.00
84294;DHT22;74463;51.182;3.210;2024-03-02T03:19:55;6.20;89.30
84294;DHT22;74463;51.182;3.210;2024-03-02T03:22:22;6.20;89.40
84294;DHT22;74463;51.182;3.210;2024-03-02T03:24:50;6.30;89.80
84294;DHT22;74463;51.182;3.210;2024-03-02T03:27:17;6.30;89.00
84294;DHT22;74463;51.182;3.210;2024-03-02T03:29:45;6.30;89.10
84294;DHT22;74463;51.182;3.210;2024-03-02T03:32:14;6.20;89.40
84294;DHT22;74463;51.182;3.210;2024-03-02T03:34:42;6.10;89.70
84294;DHT22;74463;51.182;3.210;2024-03-02T03:37:10;6.10;89.70
84294;DHT22;74463;51.182;3.210;2024-03-02T03:39:37;6.10;89.40
84294;DHT22;74463;51.182;3.210;2024-03-02T03:42:05;6.00;89.90
84294;DHT22;74463;51.182;3.210;2024-03-02T03:44:33;6.00;90.20
84294;DHT22;74463;51.182;3.210;2024-03-02T03:47:00;5.90;90.30
84294;DHT22;74463;51.182;3.210;2024-03-02T03:49:30;6.00;90.20
84294;DHT22;74463;51.182;3.210;2024-03-02T03:51:57;6.00;90.30
84294;DHT22;74463;51.182;3.210;2024-03-02T03:54:25;6.00;90.40
84294;DHT22;74463;51.182;3.210;2024-03-02T03:56:52;5.90;90.50
84294;DHT22;74463;51.182;3.210;2024-03-02T03:59:19;5.80;90.70
84294;DHT22;74463;51.182;3.210;2024-03-02T04:01:47;5.80;90.80
84294;DHT22;74463;51.182;3.210;2024-03-02T04:04:14;5.80;90.80
84294;DHT22;74463;51.182;3.210;2024-03-02T04:06:44;5.80;90.80
84294;DHT22;74463;51.182;3.210;2024-03-02T04:09:11;6.00;90.30
84294;DHT22;74463;51.182;3.210;2024-03-02T04:11:39;6.00;90.30
84294;DHT22;74463;51.182;3.210;2024-03-02T04:14:06;5.80;90.40
84294;DHT22;74463;51.182;3.210;2024-03-02T04:16:34;6.00;90.50
84294;DHT22;74463;51.182;3.210;2024-03-02T04:19:02;5.90;90.50
84294;DHT22;74463;51.182;3.210;2024-03-02T04:21:29;5.90;90.40
84294;DHT22;74463;51.182;3.210;2024-03-02T04:23:58;5.90;90.50
84294;DHT22;74463;51.182;3.210;2024-03-02T04:26:26;5.90;90.40
84294;DHT22;74463;51.182;3.210;2024-03-02T04:28:53;5.90;90.10
84294;DHT22;74463;51.182;3.210;2024-03-02T04:31:21;5.90;90.40
84294;DHT22;74463;51.182;3.210;2024-03-02T04:33:49;5.80;90.40
84294;DHT22;74463;51.182;3.210;2024-03-02T04:36:16;5.80;90.60
84294;DHT22;74463;51.182;3.210;2024-03-02T04:38:44;5.80;90.60
84294;DHT22;74463;51.182;3.210;2024-03-02T04:41:12;6.00;90.20
84294;DHT22;74463;51.182;3.210;2024-03-02T04:43:40;6.00;89.60
84294;DHT22;74463;51.182;3.210;2024-03-02T04:46:07;5.90;90.00
84294;DHT22;74463;51.182;3.210;2024-03-02T04:48:35;5.80;90.20
84294;DHT22;74463;51.182;3.210;2024-03-02T04:51:03;5.90;90.20
84294;DHT22;74463;51.182;3.210;2024-03-02T04:53:30;5.90;90.20
84294;DHT22;74463;51.182;3.210;2024-03-02T04:55:58;5.90;90.20
84294;DHT22;74463;51.182;3.210;2024-03-02T04:58:47;6.00;89.70
84294;DHT22;74463;51.182;3.210;2024-03-02T05:01:15;5.90;89.70
84294;DHT22;74463;51.182;3.210;2024-03-02T05:03:43;5.80;90.00
84294;DHT22;74463;51.182;3.210;2024-03-02T05:06:11;5.80;90.20
84294;DHT22;74463;51.182;3.210;2024-03-02T05:08:38;5.80;90.30
84294;DHT22;74463;51.182;3.210;2024-03-02T05:11:05;5.90;90.00
84294;DHT22;74463;51.182;3.210;2024-03-02T05:13:52;5.90;90.10
84294;DHT22;74463;51.182;3.210;2024-03-02T05:16:19;5.80;90.10
84294;DHT22;74463;51.182;3.210;2024-03-02T05:18:48;5.80;90.00
84294;DHT22;74463;51.182;3.210;2024-03-02T05:21:15;5.80;90.00
84294;DHT22;74463;51.182;3.210;2024-03-02T05:23:43;5.70;90.20
84294;DHT22;74463;51.182;3.210;2024-03-02T05:26:11;5.80;90.20
84294;DHT22;74463;51.182;3.210;2024-03-02T05:28:39;5.80;90.10
84294;DHT22;74463;51.182;3.210;2024-03-02T05:31:10;5.70;90.30
84294;DHT22;74463;51.182;3.210;2024-03-02T05:33:38;5.70;90.30
84294;DHT22;74463;51.182;3.210;2024-03-02T05:36:06;5.70;90.30
84294;DHT22;74463;51.182;3.210;2024-03-02T05:38:35;5.80;90.30
84294;DHT22;74463;51.182;3.210;2024-03-02T05:41:02;5.70;90.40
84294;DHT22;74463;51.182;3.210;2024-03-02T05:43:30;5.70;90.40
84294;DHT22;74463;51.182;3.210;2024-03-02T05:45:58;5.70;90.50
84294;DHT22;74463;51.182;3.210;2024-03-02T05:48:27;5.70;90.50
84294;DHT22;74463;51.182;3.210;2024-03-02T05:50:54;5.80;90.10
84294;DHT22;74463;51.182;3.210;2024-03-02T05:53:22;5.70;90.30
84294;DHT22;74463;51.182;3.210;2024-03-02T05:55:49;5.50;90.60
84294;DHT22;74463;51.182;3.210;2024-03-02T05:58:21;5.50;90.80
84294;DHT22;74463;51.182;3.210;2024-03-02T06:00:58;5.50;90.90
84294;DHT22;74463;51.182;3.210;2024-03-02T06:03:27;5.50;90.90
84294;DHT22;74463;51.182;3.210;2024-03-02T06:05:55;5.50;91.00
84294;DHT22;74463;51.182;3.210;2024-03-02T06:08:23;5.50;90.90
84294;DHT22;74463;51.182;3.210;2024-03-02T06:10:50;5.50;90.90
84294;DHT22;74463;51.182;3.210;2024-03-02T06:13:18;5.50;91.10
84294;DHT22;74463;51.182;3.210;2024-03-02T06:15:45;5.50;90.90
84294;DHT22;74463;51.182;3.210;2024-03-02T06:18:13;5.50;90.80
84294;DHT22;74463;51.182;3.210;2024-03-02T06:20:42;5.50;90.80
84294;DHT22;74463;51.182;3.210;2024-03-02T06:23:09;5.70;90.50
84294;DHT22;74463;51.182;3.210;2024-03-02T06:25:36;5.70;90.50
84294;DHT22;74463;51.182;3.210;2024-03-02T06:28:04;5.60;90.40
84294;DHT22;74463;51.182;3.210;2024-03-02T06:30:33;5.60;90.50
84294;DHT22;74463;51.182;3.210;2024-03-02T06:33:00;5.60;90.70
84294;DHT22;74463;51.182;3.210;2024-03-02T06:35:29;5.60;90.70
84294;DHT22;74463;51.182;3.210;2024-03-02T06:37:58;5.50;90.60
84294;DHT22;74463;51.182;3.210;2024-03-02T06:40:25;5.60;90.70
84294;DHT22;74463;51.182;3.210;2024-03-02T06:42:53;5.60;90.30
84294;DHT22;74463;51.182;3.210;2024-03-02T06:45:20;5.60;90.50
84294;DHT22;74463;51.182;3.210;2024-03-02T06:47:47;5.70;90.50
84294;DHT22;74463;51.182;3.210;2024-03-02T06:50:15;5.70;90.70
84294;DHT22;74463;51.182;3.210;2024-03-02T06:52:43;5.80;90.20
84294;DHT22;74463;51.182;3.210;2024-03-02T06:55:12;5.70;90.20
84294;DHT22;74463;51.182;3.210;2024-03-02T06:57:39;5.60;90.40
84294;DHT22;74463;51.182;3.210;2024-03-02T07:00:07;5.50;90.60
84294;DHT22;74463;51.182;3.210;2024-03-02T07:02:35;5.50;90.80
84294;DHT22;74463;51.182;3.210;2024-03-02T07:05:03;5.60;90.60
84294;DHT22;74463;51.182;3.210;2024-03-02T07:07:33;5.60;90.50
84294;DHT22;74463;51.182;3.210;2024-03-02T07:10:00;5.60;90.60
84294;DHT22;74463;51.182;3.210;2024-03-02T07:12:30;5.60;90.60
84294;DHT22;74463;51.182;3.210;2024-03-02T07:14:57;5.50;91.00
84294;DHT22;74463;51.182;3.210;2024-03-02T07:17:44;5.50;91.10
84294;DHT22;74463;51.182;3.210;2024-03-02T07:20:12;5.60;91.10
84294;DHT22;74463;51.182;3.210;2024-03-02T07:22:39;5.80;90.70
84294;DHT22;74463;51.182;3.210;2024-03-02T07:25:07;5.90;90.50
84294;DHT22;74463;51.182;3.210;2024-03-02T07:27:36;5.80;90.40
84294;DHT22;74463;51.182;3.210;2024-03-02T07:30:04;5.80;90.70
84294;DHT22;74463;51.182;3.210;2024-03-02T07:32:31;5.80;90.60
84294;DHT22;74463;51.182;3.210;2024-03-02T07:34:59;5.80;90.50
84294;DHT22;74463;51.182;3.210;2024-03-02T07:37:27;5.90;90.60
84294;DHT22;74463;51.182;3.210;2024-03-02T07:39:54;6.00;90.50
84294;DHT22;74463;51.182;3.210;2024-03-02T07:42:22;6.00;90.40
84294;DHT22;74463;51.182;3.210;2024-03-02T07:44:51;6.10;90.30
84294;DHT22;74463;51.182;3.210;2024-03-02T07:47:18;6.10;90.30
84294;DHT22;74463;51.182;3.210;2024-03-02T07:49:45;6.20;90.20
84294;DHT22;74463;51.182;3.210;2024-03-02T07:52:13;6.20;90.00
84294;DHT22;74463;51.182;3.210;2024-03-02T07:54:40;6.30;89.90
84294;DHT22;74463;51.182;3.210;2024-03-02T07:57:07;6.40;89.50
84294;DHT22;74463;51.182;3.210;2024-03-02T07:59:36;6.40;89.40
84294;DHT22;74463;51.182;3.210;2024-03-02T08:02:05;6.50;89.70
84294;DHT22;74463;51.182;3.210;2024-03-02T08:04:33;6.50;89.30
84294;DHT22;74463;51.182;3.210;2024-03-02T08:07:00;6.60;88.90
84294;DHT22;74463;51.182;3.210;2024-03-02T08:09:27;6.70;88.60
84294;DHT22;74463;51.182;3.210;2024-03-02T08:11:54;6.70;89.30
84294;DHT22;74463;51.182;3.210;2024-03-02T08:14:22;6.80;88.90
84294;DHT22;74463;51.182;3.210;2024-03-02T08:16:49;7.00;87.50
84294;DHT22;74463;51.182;3.210;2024-03-02T08:19:18;7.00;87.70
84294;DHT22;74463;51.182;3.210;2024-03-02T08:21:46;7.10;86.70
84294;DHT22;74463;51.182;3.210;2024-03-02T08:24:13;7.10;87.50
84294;DHT22;74463;51.182;3.210;2024-03-02T08:26:40;7.10;86.80
84294;DHT22;74463;51.182;3.210;2024-03-02T08:29:08;7.10;86.90
84294;DHT22;74463;51.182;3.210;2024-03-02T08:31:35;7.20;86.70
84294;DHT22;74463;51.182;3.210;2024-03-02T08:34:02;7.30;86.60
84294;DHT22;74463;51.182;3.210;2024-03-02T08:36:30;7.30;86.80
84294;DHT22;74463;51.182;3.210;2024-03-02T08:38:57;7.30;86.50
84294;DHT22;74463;51.182;3.210;2024-03-02T08:41:24;7.50;85.10
84294;DHT22;74463;51.182;3.210;2024-03-02T08:43:52;7.50;85.20
84294;DHT22;74463;51.182;3.210;2024-03-02T08:46:19;7.60;84.70
84294;DHT22;74463;51.182;3.210;2024-03-02T08:48:46;7.60;84.50
84294;DHT22;74463;51.182;3.210;2024-03-02T08:51:14;7.80;84.20
84294;DHT22;74463;51.182;3.210;2024-03-02T08:53:43;7.80;83.40
84294;DHT22;74463;51.182;3.210;2024-03-02T08:56:10;8.00;84.00
84294;DHT22;74463;51.182;3.210;2024-03-02T08:58:38;8.10;83.40
84294;DHT22;74463;51.182;3.210;2024-03-02T09:01:06;8.10;83.10
84294;DHT22;74463;51.182;3.210;2024-03-02T09:03:34;8.00;82.30
84294;DHT22;74463;51.182;3.210;2024-03-02T09:06:01;8.00;83.10
84294;DHT22;74463;51.182;3.210;2024-03-02T09:08:28;8.20;82.60
84294;DHT22;74463;51.182;3.210;2024-03-02T09:10:57;8.10;82.00
84294;DHT22;74463;51.182;3.210;2024-03-02T09:13:25;8.30;81.80
84294;DHT22;74463;51.182;3.210;2024-03-02T09:15:52;8.30;80.80
84294;DHT22;74463;51.182;3.210;2024-03-02T09:18:19;8.30;82.20
84294;DHT22;74463;51.182;3.210;2024-03-02T09:20:46;8.30;81.40
84294;DHT22;74463;51.182;3.210;2024-03-02T09:23:14;8.30;81.40
84294;DHT22;74463;51.182;3.210;2024-03-02T09:25:41;8.40;81.50
84294;DHT22;74463;51.182;3.210;2024-03-02T09:28:10;8.40;81.60
84294;DHT22;74463;51.182;3.210;2024-03-02T09:30:38;8.40;80.60
84294;DHT22;74463;51.182;3.210;2024-03-02T09:33:05;8.50;80.90
84294;DHT22;74463;51.182;3.210;2024-03-02T09:35:33;8.40;80.50
84294;DHT22;74463;51.182;3.210;2024-03-02T09:38:00;8.40;81.40
84294;DHT22;74463;51.182;3.210;2024-03-02T09:40:29;8.50;81.30
84294;DHT22;74463;51.182;3.210;2024-03-02T09:42:56;8.50;81.10
84294;DHT22;74463;51.182;3.210;2024-03-02T09:45:26;8.70;80.50
84294;DHT22;74463;51.182;3.210;2024-03-02T09:47:55;8.80;79.70
84294;DHT22;74463;51.182;3.210;2024-03-02T09:50:22;9.00;79.60
84294;DHT22;74463;51.182;3.210;2024-03-02T09:52:50;9.00;78.80
84294;DHT22;74463;51.182;3.210;2024-03-02T09:55:17;8.90;79.60
84294;DHT22;74463;51.182;3.210;2024-03-02T09:57:45;8.90;79.80
84294;DHT22;74463;51.182;3.210;2024-03-02T10:00:15;8.90;79.80
84294;DHT22;74463;51.182;3.210;2024-03-02T10:02:44;9.00;79.40
84294;DHT22;74463;51.182;3.210;2024-03-02T10:05:23;8.80;78.90
84294;DHT22;74463;51.182;3.210;2024-03-02T10:07:59;9.00;79.30
84294;DHT22;74463;51.182;3.210;2024-03-02T10:10:35;9.00;79.30
84294;DHT22;74463;51.182;3.210;2024-03-02T10:13:06;9.30;78.80
84294;DHT22;74463;51.182;3.210;2024-03-02T10:15:34;9.30;79.00
84294;DHT22;74463;51.182;3.210;2024-03-02T10:18:05;9.50;79.20
84294;DHT22;74463;51.182;3.210;2024-03-02T10:20:32;9.60;78.30
84294;DHT22;74463;51.182;3.210;2024-03-02T10:23:10;9.50;78.30
84294;DHT22;74463;51.182;3.210;2024-03-02T10:25:38;9.40;78.50
84294;DHT22;74463;51.182;3.210;2024-03-02T10:28:06;9.40;78.30
84294;DHT22;74463;51.182;3.210;2024-03-02T10:30:34;9.50;78.40
84294;DHT22;74463;51.182;3.210;2024-03-02T10:33:04;9.60;78.10
84294;DHT22;74463;51.182;3.210;2024-03-02T10:35:33;9.60;77.70
84294;DHT22;74463;51.182;3.210;2024-03-02T10:38:04;9.60;78.20
84294;DHT22;74463;51.182;3.210;2024-03-02T10:40:32;9.80;77.70
84294;DHT22;74463;51.182;3.210;2024-03-02T10:43:02;10.00;77.80
84294;DHT22;74463;51.182;3.210;2024-03-02T10:45:31;10.00;77.10
84294;DHT22;74463;51.182;3.210;2024-03-02T10:48:01;10.30;76.90
84294;DHT22;74463;51.182;3.210;2024-03-02T10:50:32;10.50;76.10
84294;DHT22;74463;51.182;3.210;2024-03-02T10:52:59;10.80;74.30
84294;DHT22;74463;51.182;3.210;2024-03-02T10:55:27;10.70;74.30
84294;DHT22;74463;51.182;3.210;2024-03-02T10:57:55;10.70;73.60
84294;DHT22;74463;51.182;3.210;2024-03-02T11:00:25;10.80;74.20
84294;DHT22;74463;51.182;3.210;2024-03-02T11:02:57;10.90;73.40
84294;DHT22;74463;51.182;3.210;2024-03-02T11:05:27;11.10;73.10
84294;DHT22;74463;51.182;3.210;2024-03-02T11:08:02;10.90;72.50
84294;DHT22;74463;51.182;3.210;2024-03-02T11:10:34;10.70;74.10
84294;DHT22;74463;51.182;3.210;2024-03-02T11:13:05;10.50;74.00
84294;DHT22;74463;51.182;3.210;2024-03-02T11:15:34;10.50;74.50
84294;DHT22;74463;51.182;3.210;2024-03-02T11:18:04;10.40;74.30
84294;DHT22;74463;51.182;3.210;2024-03-02T11:20:36;10.60;75.40
84294;DHT22;74463;51.182;3.210;2024-03-02T11:23:09;11.10;74.20
84294;DHT22;74463;51.182;3.210;2024-03-02T11:25:36;11.20;73.00
84294;DHT22;74463;51.182;3.210;2024-03-02T11:28:06;11.20;71.60
84294;DHT22;74463;51.182;3.210;2024-03-02T11:30:51;11.60;72.50
84294;DHT22;74463;51.182;3.210;2024-03-02T11:33:26;11.40;71.40
84294;DHT22;74463;51.182;3.210;2024-03-02T11:35:56;11.70;70.50
84294;DHT22;74463;51.182;3.210;2024-03-02T11:38:28;11.90;71.10
84294;DHT22;74463;51.182;3.210;2024-03-02T11:40:59;11.80;70.60
84294;DHT22;74463;51.182;3.210;2024-03-02T11:43:28;11.80;70.10
84294;DHT22;74463;51.182;3.210;2024-03-02T11:45:59;11.50;71.50
84294;DHT22;74463;51.182;3.210;2024-03-02T11:48:26;11.40;70.90
84294;DHT22;74463;51.182;3.210;2024-03-02T11:50:58;11.10;71.90
84294;DHT22;74463;51.182;3.210;2024-03-02T11:53:26;10.80;73.30
84294;DHT22;74463;51.182;3.210;2024-03-02T11:55:56;10.70;74.20
84294;DHT22;74463;51.182;3.210;2024-03-02T11:58:24;10.60;73.80
84294;DHT22;74463;51.182;3.210;2024-03-02T12:00:53;10.70;74.10
84294;DHT22;74463;51.182;3.210;2024-03-02T12:03:22;10.70;74.30
84294;DHT22;74463;51.182;3.210;2024-03-02T12:05:51;10.90;73.10
84294;DHT22;74463;51.182;3.210;2024-03-02T12:08:19;10.90;73.90
84294;DHT22;74463;51.182;3.210;2024-03-02T12:10:58;11.10;73.70
84294;DHT22;74463;51.182;3.210;2024-03-02T12:13:26;11.00;73.70
84294;DHT22;74463;51.182;3.210;2024-03-02T12:15:54;11.00;74.00
84294;DHT22;74463;51.182;3.210;2024-03-02T12:18:23;10.80;74.60
84294;DHT22;74463;51.182;3.210;2024-03-02T12:20:51;10.70;77.00
84294;DHT22;74463;51.182;3.210;2024-03-02T12:23:22;10.50;77.90
84294;DHT22;74463;51.182;3.210;2024-03-02T12:25:50;10.50;79.00
84294;DHT22;74463;51.182;3.210;2024-03-02T12:28:20;10.40;78.50
84294;DHT22;74463;51.182;3.210;2024-03-02T12:30:47;10.40;79.00
84294;DHT22;74463;51.182;3.210;2024-03-02T12:33:16;10.40;80.60
84294;DHT22;74463;51.182;3.210;2024-03-02T12:35:44;10.40;80.50
84294;DHT22;74463;51.182;3.210;2024-03-02T12:38:12;10.20;82.10
84294;DHT22;74463;51.182;3.210;2024-03-02T12:40:39;10.10;81.90
84294;DHT22;74463;51.182;3.210;2024-03-02T12:43:07;10.20;82.30
84294;DHT22;74463;51.182;3.210;2024-03-02T12:45:36;10.00;83.70
84294;DHT22;74463;51.182;3.210;2024-03-02T12:48:04;10.20;84.50
84294;DHT22;74463;51.182;3.210;2024-03-02T12:50:32;10.20;82.70
84294;DHT22;74463;51.182;3.210;2024-03-02T12:53:00;10.10;82.90
84294;DHT22;74463;51.182;3.210;2024-03-02T12:55:27;10.10;83.10
84294;DHT22;74463;51.182;3.210;2024-03-02T12:57:56;10.20;83.10
84294;DHT22;74463;51.182;3.210;2024-03-02T13:00:24;10.30;82.40
84294;DHT22;74463;51.182;3.210;2024-03-02T13:02:53;10.30;83.00
84294;DHT22;74463;51.182;3.210;2024-03-02T13:05:30;10.20;84.40
84294;DHT22;74463;51.182;3.210;2024-03-02T13:07:59;10.30;83.90
84294;DHT22;74463;51.182;3.210;2024-03-02T13:10:29;10.30;83.20
84294;DHT22;74463;51.182;3.210;2024-03-02T13:12:57;10.10;84.30
84294;DHT22;74463;51.182;3.210;2024-03-02T13:15:26;10.10;84.80
84294;DHT22;74463;51.182;3.210;2024-03-02T13:17:58;10.10;86.00
84294;DHT22;74463;51.182;3.210;2024-03-02T13:20:30;10.20;85.50
84294;DHT22;74463;51.182;3.210;2024-03-02T13:22:58;10.30;85.60
84294;DHT22;74463;51.182;3.210;2024-03-02T13:25:26;10.10;86.70
84294;DHT22;74463;51.182;3.210;2024-03-02T13:27:53;9.90;87.00
84294;DHT22;74463;51.182;3.210;2024-03-02T13:30:21;9.80;88.80
84294;DHT22;74463;51.182;3.210;2024-03-02T13:32:48;9.80;88.70
84294;DHT22;74463;51.182;3.210;2024-03-02T13:35:17;9.80;89.30
84294;DHT22;74463;51.182;3.210;2024-03-02T13:37:45;9.90;88.90
84294;DHT22;74463;51.182;3.210;2024-03-02T13:40:12;10.10;88.70
84294;DHT22;74463;51.182;3.210;2024-03-02T13:42:43;10.20;88.00
84294;DHT22;74463;51.182;3.210;2024-03-02T13:45:12;10.40;88.20
84294;DHT22;74463;51.182;3.210;2024-03-02T13:47:39;10.70;87.50
84294;DHT22;74463;51.182;3.210;2024-03-02T13:50:07;10.80;86.40
84294;DHT22;74463;51.182;3.210;2024-03-02T13:52:36;11.10;86.90
84294;DHT22;74463;51.182;3.210;2024-03-02T13:55:03;11.60;85.80
84294;DHT22;74463;51.182;3.210;2024-03-02T13:57:30;11.70;83.20
84294;DHT22;74463;51.182;3.210;2024-03-02T13:59:57;11.40;83.30
84294;DHT22;74463;51.182;3.210;2024-03-02T14:02:25;10.90;85.20
84294;DHT22;74463;51.182;3.210;2024-03-02T14:04:53;10.70;86.40
84294;DHT22;74463;51.182;3.210;2024-03-02T14:07:20;10.70;87.30
84294;DHT22;74463;51.182;3.210;2024-03-02T14:09:49;10.60;88.30
84294;DHT22;74463;51.182;3.210;2024-03-02T14:12:16;10.50;87.40
84294;DHT22;74463;51.182;3.210;2024-03-02T14:14:43;10.30;88.30
84294;DHT22;74463;51.182;3.210;2024-03-02T14:17:10;10.20;88.40
84294;DHT22;74463;51.182;3.210;2024-03-02T14:19:40;10.20;89.30
84294;DHT22;74463;51.182;3.210;2024-03-02T14:22:09;10.10;88.90
84294;DHT22;74463;51.182;3.210;2024-03-02T14:24:39;10.30;89.10
84294;DHT22;74463;51.182;3.210;2024-03-02T14:27:10;10.30;87.60
84294;DHT22;74463;51.182;3.210;2024-03-02T14:29:39;10.40;88.10
84294;DHT22;74463;51.182;3.210;2024-03-02T14:32:07;10.40;87.70
84294;DHT22;74463;51.182;3.210;2024-03-02T14:34:34;10.50;87.30
84294;DHT22;74463;51.182;3.210;2024-03-02T14:37:02;10.50;86.10
84294;DHT22;74463;51.182;3.210;2024-03-02T14:39:30;10.40;87.80
84294;DHT22;74463;51.182;3.210;2024-03-02T14:42:00;10.40;88.70
84294;DHT22;74463;51.182;3.210;2024-03-02T14:44:29;10.50;87.50
84294;DHT22;74463;51.182;3.210;2024-03-02T14:46:56;10.60;86.90
84294;DHT22;74463;51.182;3.210;2024-03-02T14:49:25;10.50;86.80
84294;DHT22;74463;51.182;3.210;2024-03-02T14:51:52;10.70;86.00
84294;DHT22;74463;51.182;3.210;2024-03-02T14:54:20;10.60;84.90
84294;DHT22;74463;51.182;3.210;2024-03-02T14:56:47;11.00;85.10
84294;DHT22;74463;51.182;3.210;2024-03-02T14:59:15;10.80;84.30
84294;DHT22;74463;51.182;3.210;2024-03-02T15:01:44;10.80;84.80
84294;DHT22;74463;51.182;3.210;2024-03-02T15:04:12;10.80;84.80
84294;DHT22;74463;51.182;3.210;2024-03-02T15:06:39;10.50;85.40
84294;DHT22;74463;51.182;3.210;2024-03-02T15:09:07;10.50;86.30
84294;DHT22;74463;51.182;3.210;2024-03-02T15:11:35;10.60;85.70
84294;DHT22;74463;51.182;3.210;2024-03-02T15:14:02;10.60;84.40
84294;DHT22;74463;51.182;3.210;2024-03-02T15:16:30;10.30;85.80
84294;DHT22;74463;51.182;3.210;2024-03-02T15:18:59;10.20;84.90
84294;DHT22;74463;51.182;3.210;2024-03-02T15:21:26;10.00;86.10
84294;DHT22;74463;51.182;3.210;2024-03-02T15:23:53;9.80;88.70
84294;DHT22;74463;51.182;3.210;2024-03-02T15:26:21;9.80;85.90
84294;DHT22;74463;51.182;3.210;2024-03-02T15:28:48;9.60;87.90
84294;DHT22;74463;51.182;3.210;2024-03-02T15:31:16;9.50;88.00
84294;DHT22;74463;51.182;3.210;2024-03-02T15:33:44;9.50;89.20
84294;DHT22;74463;51.182;3.210;2024-03-02T15:36:13;9.40;88.90
84294;DHT22;74463;51.182;3.210;2024-03-02T15:38:40;9.30;89.30
84294;DHT22;74463;51.182;3.210;2024-03-02T15:41:08;9.30;90.20
84294;DHT22;74463;51.182;3.210;2024-03-02T15:43:36;9.20;91.10
84294;DHT22;74463;51.182;3.210;2024-03-02T15:46:05;9.20;91.30
84294;DHT22;74463;51.182;3.210;2024-03-02T15:48:32;9.30;91.00
84294;DHT22;74463;51.182;3.210;2024-03-02T15:51:00;9.50;90.60
84294;DHT22;74463;51.182;3.210;2024-03-02T15:53:31;9.60;88.10